Terminal Aerodrome Forecast
Issued by NWS

Home | Current Version | Previous Version | Text Only | Print | Product List | Glossary On
Versions: 1 2 3 4 5 6 7 8 9 10 11 12 13 14 15 16 17 18 19 20 21 22 23 24 25 26 27 28 29
000
FTAK31 PAFA 192320
TAFAUN
TAF
PAUN 192320Z 2000/2024 33018KT P6SM VCSH SCT015 OVC100
     FM200600 33016KT P6SM VCSH OVC050
     FM201300 31012KT P6SM -SHRA OVC025
     FM201600 29012KT P6SM OVC015=

USA.gov is the U.S. government's official web portal to all federal, state and local government web resources and services.